sensor_id;sensor_type;location;lat;lon;timestamp;temperature;humidity
47338;DHT22;33069;51.970;5.892;2023-05-10T00:01:42;13.30;91.30
47338;DHT22;33069;51.970;5.892;2023-05-10T00:04:08;13.20;91.20
47338;DHT22;33069;51.970;5.892;2023-05-10T00:06:34;13.30;91.20
47338;DHT22;33069;51.970;5.892;2023-05-10T00:09:00;13.30;91.20
47338;DHT22;33069;51.970;5.892;2023-05-10T00:11:26;13.30;91.20
47338;DHT22;33069;51.970;5.892;2023-05-10T00:13:51;13.30;91.10
47338;DHT22;33069;51.970;5.892;2023-05-10T00:16:17;13.30;91.10
47338;DHT22;33069;51.970;5.892;2023-05-10T00:18:43;13.60;91.20
47338;DHT22;33069;51.970;5.892;2023-05-10T00:21:12;13.40;90.90
47338;DHT22;33069;51.970;5.892;2023-05-10T00:23:38;13.30;90.90
47338;DHT22;33069;51.970;5.892;2023-05-10T00:26:03;13.50;90.90
47338;DHT22;33069;51.970;5.892;2023-05-10T00:28:29;13.50;90.90
47338;DHT22;33069;51.970;5.892;2023-05-10T00:30:55;13.40;90.80
47338;DHT22;33069;51.970;5.892;2023-05-10T00:33:21;13.40;90.80
47338;DHT22;33069;51.970;5.892;2023-05-10T00:35:46;13.40;90.70
47338;DHT22;33069;51.970;5.892;2023-05-10T00:38:12;13.60;90.70
47338;DHT22;33069;51.970;5.892;2023-05-10T00:40:38;13.50;90.60
47338;DHT22;33069;51.970;5.892;2023-05-10T00:43:04;13.30;90.30
47338;DHT22;33069;51.970;5.892;2023-05-10T00:45:35;13.40;90.50
47338;DHT22;33069;51.970;5.892;2023-05-10T00:48:02;13.40;90.50
47338;DHT22;33069;51.970;5.892;2023-05-10T00:50:30;13.40;90.60
47338;DHT22;33069;51.970;5.892;2023-05-10T00:52:57;13.40;90.60
47338;DHT22;33069;51.970;5.892;2023-05-10T00:55:24;13.60;90.70
47338;DHT22;33069;51.970;5.892;2023-05-10T00:57:50;13.30;90.50
47338;DHT22;33069;51.970;5.892;2023-05-10T01:00:16;13.30;90.60
47338;DHT22;33069;51.970;5.892;2023-05-10T01:02:44;13.50;90.70
47338;DHT22;33069;51.970;5.892;2023-05-10T01:05:11;13.40;90.60
47338;DHT22;33069;51.970;5.892;2023-05-10T01:07:37;13.30;90.50
47338;DHT22;33069;51.970;5.892;2023-05-10T01:10:05;13.20;90.50
47338;DHT22;33069;51.970;5.892;2023-05-10T01:12:32;13.20;90.60
47338;DHT22;33069;51.970;5.892;2023-05-10T01:14:57;13.10;90.60
47338;DHT22;33069;51.970;5.892;2023-05-10T01:17:24;13.20;90.80
47338;DHT22;33069;51.970;5.892;2023-05-10T01:19:50;13.20;90.90
47338;DHT22;33069;51.970;5.892;2023-05-10T01:27:52;13.70;91.10
47338;DHT22;33069;51.970;5.892;2023-05-10T01:30:55;13.50;90.70
47338;DHT22;33069;51.970;5.892;2023-05-10T01:38:53;13.50;90.50
47338;DHT22;33069;51.970;5.892;2023-05-10T01:41:32;13.60;90.50
47338;DHT22;33069;51.970;5.892;2023-05-10T01:44:01;13.50;90.40
47338;DHT22;33069;51.970;5.892;2023-05-10T01:46:37;13.50;90.40
47338;DHT22;33069;51.970;5.892;2023-05-10T01:49:07;13.50;90.50
47338;DHT22;33069;51.970;5.892;2023-05-10T01:51:45;13.50;90.50
47338;DHT22;33069;51.970;5.892;2023-05-10T01:54:13;13.40;90.40
47338;DHT22;33069;51.970;5.892;2023-05-10T01:56:40;13.50;90.60
47338;DHT22;33069;51.970;5.892;2023-05-10T01:59:13;13.40;90.60
47338;DHT22;33069;51.970;5.892;2023-05-10T02:01:41;13.60;90.70
47338;DHT22;33069;51.970;5.892;2023-05-10T02:04:09;13.60;90.80
47338;DHT22;33069;51.970;5.892;2023-05-10T02:06:36;13.70;90.70
47338;DHT22;33069;51.970;5.892;2023-05-10T02:09:02;13.70;90.70
47338;DHT22;33069;51.970;5.892;2023-05-10T02:11:29;13.70;90.50
47338;DHT22;33069;51.970;5.892;2023-05-10T02:13:55;13.50;90.30
47338;DHT22;33069;51.970;5.892;2023-05-10T02:16:25;13.60;90.30
47338;DHT22;33069;51.970;5.892;2023-05-10T02:18:52;13.70;90.40
47338;DHT22;33069;51.970;5.892;2023-05-10T02:21:20;13.60;90.30
47338;DHT22;33069;51.970;5.892;2023-05-10T02:23:46;13.60;90.20
47338;DHT22;33069;51.970;5.892;2023-05-10T02:26:14;13.70;90.30
47338;DHT22;33069;51.970;5.892;2023-05-10T02:28:42;13.70;90.00
47338;DHT22;33069;51.970;5.892;2023-05-10T02:31:09;13.70;90.10
47338;DHT22;33069;51.970;5.892;2023-05-10T02:33:38;13.50;90.00
47338;DHT22;33069;51.970;5.892;2023-05-10T02:36:06;13.60;90.10
47338;DHT22;33069;51.970;5.892;2023-05-10T02:38:33;13.70;90.00
47338;DHT22;33069;51.970;5.892;2023-05-10T02:40:59;13.60;89.90
47338;DHT22;33069;51.970;5.892;2023-05-10T02:43:25;13.60;90.00
47338;DHT22;33069;51.970;5.892;2023-05-10T02:45:51;13.70;89.90
47338;DHT22;33069;51.970;5.892;2023-05-10T02:48:17;13.60;89.90
47338;DHT22;33069;51.970;5.892;2023-05-10T02:50:47;13.60;89.80
47338;DHT22;33069;51.970;5.892;2023-05-10T02:53:21;13.60;89.60
47338;DHT22;33069;51.970;5.892;2023-05-10T02:55:52;13.40;89.50
47338;DHT22;33069;51.970;5.892;2023-05-10T02:58:21;13.50;89.80
47338;DHT22;33069;51.970;5.892;2023-05-10T03:00:47;13.40;89.70
47338;DHT22;33069;51.970;5.892;2023-05-10T03:03:13;13.40;89.70
47338;DHT22;33069;51.970;5.892;2023-05-10T03:05:39;13.50;89.60
47338;DHT22;33069;51.970;5.892;2023-05-10T03:08:04;13.50;89.60
47338;DHT22;33069;51.970;5.892;2023-05-10T03:10:32;13.50;89.60
47338;DHT22;33069;51.970;5.892;2023-05-10T03:21:31;13.30;89.10
47338;DHT22;33069;51.970;5.892;2023-05-10T03:24:08;13.20;89.30
47338;DHT22;33069;51.970;5.892;2023-05-10T03:26:37;13.20;89.70
47338;DHT22;33069;51.970;5.892;2023-05-10T03:29:04;13.10;89.60
47338;DHT22;33069;51.970;5.892;2023-05-10T03:31:30;13.30;89.80
47338;DHT22;33069;51.970;5.892;2023-05-10T03:33:56;13.30;89.50
47338;DHT22;33069;51.970;5.892;2023-05-10T03:36:22;13.20;89.40
47338;DHT22;33069;51.970;5.892;2023-05-10T03:38:47;13.20;89.50
47338;DHT22;33069;51.970;5.892;2023-05-10T03:41:13;13.10;89.60
47338;DHT22;33069;51.970;5.892;2023-05-10T03:43:39;13.00;89.60
47338;DHT22;33069;51.970;5.892;2023-05-10T03:46:05;13.20;89.90
47338;DHT22;33069;51.970;5.892;2023-05-10T03:48:32;13.20;89.90
47338;DHT22;33069;51.970;5.892;2023-05-10T03:50:58;13.10;89.80
47338;DHT22;33069;51.970;5.892;2023-05-10T03:53:24;13.30;89.80
47338;DHT22;33069;51.970;5.892;2023-05-10T03:55:50;13.30;89.40
47338;DHT22;33069;51.970;5.892;2023-05-10T03:58:15;13.30;89.40
47338;DHT22;33069;51.970;5.892;2023-05-10T04:00:41;13.30;88.90
47338;DHT22;33069;51.970;5.892;2023-05-10T04:03:09;13.10;88.90
47338;DHT22;33069;51.970;5.892;2023-05-10T04:05:36;13.20;89.10
47338;DHT22;33069;51.970;5.892;2023-05-10T04:08:02;13.10;89.00
47338;DHT22;33069;51.970;5.892;2023-05-10T04:10:27;13.20;88.90
47338;DHT22;33069;51.970;5.892;2023-05-10T04:12:53;13.30;88.90
47338;DHT22;33069;51.970;5.892;2023-05-10T04:15:19;13.10;88.90
47338;DHT22;33069;51.970;5.892;2023-05-10T04:17:45;13.00;88.40
47338;DHT22;33069;51.970;5.892;2023-05-10T04:20:11;13.20;88.80
47338;DHT22;33069;51.970;5.892;2023-05-10T04:22:38;13.20;88.50
47338;DHT22;33069;51.970;5.892;2023-05-10T04:25:04;13.00;88.60
47338;DHT22;33069;51.970;5.892;2023-05-10T04:27:30;13.00;88.80
47338;DHT22;33069;51.970;5.892;2023-05-10T04:29:56;13.00;88.90
47338;DHT22;33069;51.970;5.892;2023-05-10T04:32:22;13.00;88.60
47338;DHT22;33069;51.970;5.892;2023-05-10T04:34:48;13.20;88.60
47338;DHT22;33069;51.970;5.892;2023-05-10T04:37:14;13.10;88.30
47338;DHT22;33069;51.970;5.892;2023-05-10T04:39:40;12.90;88.50
47338;DHT22;33069;51.970;5.892;2023-05-10T04:42:05;12.90;88.50
47338;DHT22;33069;51.970;5.892;2023-05-10T04:45:02;13.00;88.70
47338;DHT22;33069;51.970;5.892;2023-05-10T04:47:28;12.80;88.80
47338;DHT22;33069;51.970;5.892;2023-05-10T04:49:54;12.90;89.00
47338;DHT22;33069;51.970;5.892;2023-05-10T04:52:19;13.00;89.10
47338;DHT22;33069;51.970;5.892;2023-05-10T04:54:45;13.00;89.10
47338;DHT22;33069;51.970;5.892;2023-05-10T04:57:11;13.30;88.80
47338;DHT22;33069;51.970;5.892;2023-05-10T04:59:36;13.20;88.80
47338;DHT22;33069;51.970;5.892;2023-05-10T05:02:03;13.30;88.40
47338;DHT22;33069;51.970;5.892;2023-05-10T05:04:29;13.30;87.80
47338;DHT22;33069;51.970;5.892;2023-05-10T05:06:55;13.20;88.10
47338;DHT22;33069;51.970;5.892;2023-05-10T05:09:21;13.20;88.40
47338;DHT22;33069;51.970;5.892;2023-05-10T05:11:47;13.20;88.60
47338;DHT22;33069;51.970;5.892;2023-05-10T05:14:12;13.10;88.60
47338;DHT22;33069;51.970;5.892;2023-05-10T05:16:38;13.10;88.80
47338;DHT22;33069;51.970;5.892;2023-05-10T05:19:04;13.10;89.10
47338;DHT22;33069;51.970;5.892;2023-05-10T05:21:29;13.10;89.20
47338;DHT22;33069;51.970;5.892;2023-05-10T05:23:57;13.40;89.20
47338;DHT22;33069;51.970;5.892;2023-05-10T05:26:23;13.40;88.40
47338;DHT22;33069;51.970;5.892;2023-05-10T05:28:49;13.50;88.10
47338;DHT22;33069;51.970;5.892;2023-05-10T05:31:17;13.50;88.00
47338;DHT22;33069;51.970;5.892;2023-05-10T05:33:43;13.50;87.70
47338;DHT22;33069;51.970;5.892;2023-05-10T05:36:09;13.60;87.60
47338;DHT22;33069;51.970;5.892;2023-05-10T05:38:35;13.30;87.60
47338;DHT22;33069;51.970;5.892;2023-05-10T05:41:00;13.40;88.10
47338;DHT22;33069;51.970;5.892;2023-05-10T05:43:26;13.50;88.20
47338;DHT22;33069;51.970;5.892;2023-05-10T05:45:52;13.50;88.30
47338;DHT22;33069;51.970;5.892;2023-05-10T05:48:19;13.40;88.20
47338;DHT22;33069;51.970;5.892;2023-05-10T05:50:45;13.50;88.50
47338;DHT22;33069;51.970;5.892;2023-05-10T05:53:12;13.70;88.30
47338;DHT22;33069;51.970;5.892;2023-05-10T05:55:38;13.80;87.40
47338;DHT22;33069;51.970;5.892;2023-05-10T05:58:03;13.70;87.60
47338;DHT22;33069;51.970;5.892;2023-05-10T06:00:29;13.70;87.30
47338;DHT22;33069;51.970;5.892;2023-05-10T06:02:55;13.50;87.30
47338;DHT22;33069;51.970;5.892;2023-05-10T06:05:20;13.50;87.50
47338;DHT22;33069;51.970;5.892;2023-05-10T06:07:46;13.40;87.50
47338;DHT22;33069;51.970;5.892;2023-05-10T06:10:12;13.50;87.90
47338;DHT22;33069;51.970;5.892;2023-05-10T06:12:37;13.50;88.00
47338;DHT22;33069;51.970;5.892;2023-05-10T06:15:03;13.50;87.80
47338;DHT22;33069;51.970;5.892;2023-05-10T06:17:30;13.40;87.90
47338;DHT22;33069;51.970;5.892;2023-05-10T06:19:56;13.30;88.10
47338;DHT22;33069;51.970;5.892;2023-05-10T06:22:21;13.40;88.20
47338;DHT22;33069;51.970;5.892;2023-05-10T06:24:48;13.50;88.10
47338;DHT22;33069;51.970;5.892;2023-05-10T06:27:14;13.50;87.80
47338;DHT22;33069;51.970;5.892;2023-05-10T06:29:40;13.60;87.80
47338;DHT22;33069;51.970;5.892;2023-05-10T06:32:06;13.60;87.60
47338;DHT22;33069;51.970;5.892;2023-05-10T06:34:32;13.60;87.50
47338;DHT22;33069;51.970;5.892;2023-05-10T06:36:57;13.50;87.80
47338;DHT22;33069;51.970;5.892;2023-05-10T06:39:23;13.60;88.10
47338;DHT22;33069;51.970;5.892;2023-05-10T06:41:49;13.30;88.20
47338;DHT22;33069;51.970;5.892;2023-05-10T06:44:14;13.50;88.80
47338;DHT22;33069;51.970;5.892;2023-05-10T06:46:40;13.60;88.80
47338;DHT22;33069;51.970;5.892;2023-05-10T06:49:07;13.60;88.60
47338;DHT22;33069;51.970;5.892;2023-05-10T06:51:32;13.60;88.50
47338;DHT22;33069;51.970;5.892;2023-05-10T06:53:58;13.60;88.40
47338;DHT22;33069;51.970;5.892;2023-05-10T06:56:24;13.50;88.20
47338;DHT22;33069;51.970;5.892;2023-05-10T06:58:49;13.50;88.30
47338;DHT22;33069;51.970;5.892;2023-05-10T07:01:15;13.40;88.20
47338;DHT22;33069;51.970;5.892;2023-05-10T07:03:41;13.40;88.20
47338;DHT22;33069;51.970;5.892;2023-05-10T07:06:06;13.70;88.20
47338;DHT22;33069;51.970;5.892;2023-05-10T07:08:35;13.80;88.00
47338;DHT22;33069;51.970;5.892;2023-05-10T07:11:03;13.70;87.10
47338;DHT22;33069;51.970;5.892;2023-05-10T07:13:30;13.70;87.40
47338;DHT22;33069;51.970;5.892;2023-05-10T07:15:57;13.70;87.40
47338;DHT22;33069;51.970;5.892;2023-05-10T07:18:24;13.90;87.10
47338;DHT22;33069;51.970;5.892;2023-05-10T07:20:50;13.80;86.70
47338;DHT22;33069;51.970;5.892;2023-05-10T07:23:16;13.90;86.10
47338;DHT22;33069;51.970;5.892;2023-05-10T07:25:45;13.70;86.50
47338;DHT22;33069;51.970;5.892;2023-05-10T07:28:11;13.50;87.30
47338;DHT22;33069;51.970;5.892;2023-05-10T07:30:37;13.60;87.80
47338;DHT22;33069;51.970;5.892;2023-05-10T07:33:02;13.70;88.00
47338;DHT22;33069;51.970;5.892;2023-05-10T07:35:28;13.80;88.10
47338;DHT22;33069;51.970;5.892;2023-05-10T07:37:54;13.90;87.90
47338;DHT22;33069;51.970;5.892;2023-05-10T07:40:19;14.00;87.40
47338;DHT22;33069;51.970;5.892;2023-05-10T07:42:45;14.10;87.30
47338;DHT22;33069;51.970;5.892;2023-05-10T07:45:11;14.20;86.80
47338;DHT22;33069;51.970;5.892;2023-05-10T07:47:36;14.00;86.70
47338;DHT22;33069;51.970;5.892;2023-05-10T07:50:02;14.30;86.90
47338;DHT22;33069;51.970;5.892;2023-05-10T07:52:28;14.40;86.00
47338;DHT22;33069;51.970;5.892;2023-05-10T07:54:53;14.50;86.10
47338;DHT22;33069;51.970;5.892;2023-05-10T07:57:20;14.50;86.10
47338;DHT22;33069;51.970;5.892;2023-05-10T07:59:45;14.20;85.70
47338;DHT22;33069;51.970;5.892;2023-05-10T08:02:12;14.20;86.40
47338;DHT22;33069;51.970;5.892;2023-05-10T08:04:38;14.30;86.70
47338;DHT22;33069;51.970;5.892;2023-05-10T08:07:03;14.40;85.90
47338;DHT22;33069;51.970;5.892;2023-05-10T08:09:29;14.40;85.60
47338;DHT22;33069;51.970;5.892;2023-05-10T08:11:55;14.70;84.40
47338;DHT22;33069;51.970;5.892;2023-05-10T08:14:20;14.70;83.60
47338;DHT22;33069;51.970;5.892;2023-05-10T08:16:46;14.50;84.50
47338;DHT22;33069;51.970;5.892;2023-05-10T08:19:12;14.30;84.50
47338;DHT22;33069;51.970;5.892;2023-05-10T08:21:38;14.40;84.90
47338;DHT22;33069;51.970;5.892;2023-05-10T08:24:05;14.10;84.20
47338;DHT22;33069;51.970;5.892;2023-05-10T08:26:32;14.60;84.00
47338;DHT22;33069;51.970;5.892;2023-05-10T08:28:58;14.80;83.80
47338;DHT22;33069;51.970;5.892;2023-05-10T08:31:23;14.80;82.40
47338;DHT22;33069;51.970;5.892;2023-05-10T08:33:49;14.90;83.40
47338;DHT22;33069;51.970;5.892;2023-05-10T08:36:16;15.10;81.20
47338;DHT22;33069;51.970;5.892;2023-05-10T08:38:47;15.10;80.70
47338;DHT22;33069;51.970;5.892;2023-05-10T08:41:13;14.80;81.90
47338;DHT22;33069;51.970;5.892;2023-05-10T08:43:39;14.40;83.10
47338;DHT22;33069;51.970;5.892;2023-05-10T08:46:07;14.20;83.60
47338;DHT22;33069;51.970;5.892;2023-05-10T08:48:34;13.90;84.20
47338;DHT22;33069;51.970;5.892;2023-05-10T08:51:02;13.90;84.20
47338;DHT22;33069;51.970;5.892;2023-05-10T08:53:29;13.90;84.10
47338;DHT22;33069;51.970;5.892;2023-05-10T08:55:56;14.10;83.80
47338;DHT22;33069;51.970;5.892;2023-05-10T08:58:22;14.20;82.70
47338;DHT22;33069;51.970;5.892;2023-05-10T09:00:49;14.50;81.70
47338;DHT22;33069;51.970;5.892;2023-05-10T09:03:16;14.50;81.10
47338;DHT22;33069;51.970;5.892;2023-05-10T09:05:43;14.10;82.10
47338;DHT22;33069;51.970;5.892;2023-05-10T09:08:11;14.40;81.40
47338;DHT22;33069;51.970;5.892;2023-05-10T09:10:39;14.70;80.60
47338;DHT22;33069;51.970;5.892;2023-05-10T09:13:05;14.50;80.50
47338;DHT22;33069;51.970;5.892;2023-05-10T09:15:31;14.50;79.80
47338;DHT22;33069;51.970;5.892;2023-05-10T09:17:56;14.90;79.80
47338;DHT22;33069;51.970;5.892;2023-05-10T09:20:24;15.00;77.70
47338;DHT22;33069;51.970;5.892;2023-05-10T09:22:50;15.10;77.50
47338;DHT22;33069;51.970;5.892;2023-05-10T09:25:16;15.00;75.30
47338;DHT22;33069;51.970;5.892;2023-05-10T09:27:46;14.70;76.40
47338;DHT22;33069;51.970;5.892;2023-05-10T09:30:26;14.80;76.90
47338;DHT22;33069;51.970;5.892;2023-05-10T09:32:53;14.80;76.70
47338;DHT22;33069;51.970;5.892;2023-05-10T09:35:21;14.40;78.50
47338;DHT22;33069;51.970;5.892;2023-05-10T09:37:50;14.60;78.50
47338;DHT22;33069;51.970;5.892;2023-05-10T09:40:20;14.50;78.50
47338;DHT22;33069;51.970;5.892;2023-05-10T09:42:57;14.50;77.20
47338;DHT22;33069;51.970;5.892;2023-05-10T09:45:24;14.50;77.00
47338;DHT22;33069;51.970;5.892;2023-05-10T09:47:49;14.30;78.10
47338;DHT22;33069;51.970;5.892;2023-05-10T09:50:15;14.50;77.50
47338;DHT22;33069;51.970;5.892;2023-05-10T09:55:19;14.90;76.00
47338;DHT22;33069;51.970;5.892;2023-05-10T09:57:46;14.80;77.40
47338;DHT22;33069;51.970;5.892;2023-05-10T10:00:18;14.50;78.40
47338;DHT22;33069;51.970;5.892;2023-05-10T10:02:46;14.70;75.80
47338;DHT22;33069;51.970;5.892;2023-05-10T10:05:13;14.70;76.30
47338;DHT22;33069;51.970;5.892;2023-05-10T10:07:39;14.60;76.10
47338;DHT22;33069;51.970;5.892;2023-05-10T10:10:05;14.40;77.10
47338;DHT22;33069;51.970;5.892;2023-05-10T10:12:37;14.30;77.70
47338;DHT22;33069;51.970;5.892;2023-05-10T10:15:03;14.40;77.80
47338;DHT22;33069;51.970;5.892;2023-05-10T10:17:30;14.70;78.20
47338;DHT22;33069;51.970;5.892;2023-05-10T10:19:57;14.70;76.90
47338;DHT22;33069;51.970;5.892;2023-05-10T10:22:23;14.70;76.80
47338;DHT22;33069;51.970;5.892;2023-05-10T10:24:50;14.70;76.70
47338;DHT22;33069;51.970;5.892;2023-05-10T10:27:20;14.80;76.80
47338;DHT22;33069;51.970;5.892;2023-05-10T10:35:39;14.50;78.00
47338;DHT22;33069;51.970;5.892;2023-05-10T10:38:07;14.70;77.60
47338;DHT22;33069;51.970;5.892;2023-05-10T10:40:34;15.10;77.50
47338;DHT22;33069;51.970;5.892;2023-05-10T10:48:35;15.20;76.10
47338;DHT22;33069;51.970;5.892;2023-05-10T10:51:01;15.10;76.70
47338;DHT22;33069;51.970;5.892;2023-05-10T10:53:28;15.20;76.00
47338;DHT22;33069;51.970;5.892;2023-05-10T10:56:08;15.40;75.90
47338;DHT22;33069;51.970;5.892;2023-05-10T10:58:35;15.70;75.20
47338;DHT22;33069;51.970;5.892;2023-05-10T11:01:18;15.90;73.50
47338;DHT22;33069;51.970;5.892;2023-05-10T11:06:36;15.60;75.90
47338;DHT22;33069;51.970;5.892;2023-05-10T11:09:09;16.10;73.20
47338;DHT22;33069;51.970;5.892;2023-05-10T11:11:36;16.10;73.30
47338;DHT22;33069;51.970;5.892;2023-05-10T11:14:13;16.40;73.90
47338;DHT22;33069;51.970;5.892;2023-05-10T11:16:43;16.50;72.60
47338;DHT22;33069;51.970;5.892;2023-05-10T11:19:12;16.50;71.00
47338;DHT22;33069;51.970;5.892;2023-05-10T11:21:52;16.10;72.70
47338;DHT22;33069;51.970;5.892;2023-05-10T11:24:37;15.70;74.70
47338;DHT22;33069;51.970;5.892;2023-05-10T11:27:03;16.40;71.30
47338;DHT22;33069;51.970;5.892;2023-05-10T11:29:28;16.30;71.60
47338;DHT22;33069;51.970;5.892;2023-05-10T11:31:58;16.20;74.00
47338;DHT22;33069;51.970;5.892;2023-05-10T11:34:30;16.60;72.00
47338;DHT22;33069;51.970;5.892;2023-05-10T11:36:57;16.80;70.40
47338;DHT22;33069;51.970;5.892;2023-05-10T11:39:27;16.80;69.40
47338;DHT22;33069;51.970;5.892;2023-05-10T11:41:53;16.10;71.40
47338;DHT22;33069;51.970;5.892;2023-05-10T11:44:19;16.10;72.90
47338;DHT22;33069;51.970;5.892;2023-05-10T11:46:45;16.50;71.10
47338;DHT22;33069;51.970;5.892;2023-05-10T11:49:11;16.70;70.60
47338;DHT22;33069;51.970;5.892;2023-05-10T11:51:38;17.10;69.60
47338;DHT22;33069;51.970;5.892;2023-05-10T11:54:09;16.80;68.10
47338;DHT22;33069;51.970;5.892;2023-05-10T11:56:39;16.10;72.40
47338;DHT22;33069;51.970;5.892;2023-05-10T11:59:05;16.00;72.20
47338;DHT22;33069;51.970;5.892;2023-05-10T12:01:31;15.70;73.50
47338;DHT22;33069;51.970;5.892;2023-05-10T12:03:58;15.70;73.40
47338;DHT22;33069;51.970;5.892;2023-05-10T12:06:30;16.50;72.60
47338;DHT22;33069;51.970;5.892;2023-05-10T12:08:56;17.10;69.00
47338;DHT22;33069;51.970;5.892;2023-05-10T12:11:25;17.30;67.90
47338;DHT22;33069;51.970;5.892;2023-05-10T12:13:51;17.30;68.50
47338;DHT22;33069;51.970;5.892;2023-05-10T12:16:25;17.80;66.00
47338;DHT22;33069;51.970;5.892;2023-05-10T12:18:51;17.70;66.00
47338;DHT22;33069;51.970;5.892;2023-05-10T12:21:19;17.10;67.10
47338;DHT22;33069;51.970;5.892;2023-05-10T12:23:46;16.70;70.90
47338;DHT22;33069;51.970;5.892;2023-05-10T12:26:12;17.20;68.80
47338;DHT22;33069;51.970;5.892;2023-05-10T12:28:38;17.80;65.70
47338;DHT22;33069;51.970;5.892;2023-05-10T12:31:07;17.60;66.90
47338;DHT22;33069;51.970;5.892;2023-05-10T12:33:41;17.80;66.90
47338;DHT22;33069;51.970;5.892;2023-05-10T12:36:16;17.80;65.90
47338;DHT22;33069;51.970;5.892;2023-05-10T12:38:44;17.10;67.90
47338;DHT22;33069;51.970;5.892;2023-05-10T12:41:18;17.40;68.10
47338;DHT22;33069;51.970;5.892;2023-05-10T12:43:44;16.70;69.40
47338;DHT22;33069;51.970;5.892;2023-05-10T12:46:16;17.40;66.90
47338;DHT22;33069;51.970;5.892;2023-05-10T12:48:43;17.20;68.20
47338;DHT22;33069;51.970;5.892;2023-05-10T12:51:09;17.40;69.00
47338;DHT22;33069;51.970;5.892;2023-05-10T12:53:37;17.20;69.30
47338;DHT22;33069;51.970;5.892;2023-05-10T12:56:03;17.20;69.30
47338;DHT22;33069;51.970;5.892;2023-05-10T12:58:29;17.10;67.70
47338;DHT22;33069;51.970;5.892;2023-05-10T13:00:55;17.70;67.90
47338;DHT22;33069;51.970;5.892;2023-05-10T13:03:22;18.30;65.20
47338;DHT22;33069;51.970;5.892;2023-05-10T13:05:48;18.00;64.60
47338;DHT22;33069;51.970;5.892;2023-05-10T13:08:14;17.40;67.40
47338;DHT22;33069;51.970;5.892;2023-05-10T13:10:39;17.70;67.30
47338;DHT22;33069;51.970;5.892;2023-05-10T13:13:05;17.80;65.40
47338;DHT22;33069;51.970;5.892;2023-05-10T13:15:32;17.70;67.80
47338;DHT22;33069;51.970;5.892;2023-05-10T13:17:58;18.00;64.70
47338;DHT22;33069;51.970;5.892;2023-05-10T13:20:24;18.50;62.00
47338;DHT22;33069;51.970;5.892;2023-05-10T13:22:50;18.00;62.10
47338;DHT22;33069;51.970;5.892;2023-05-10T13:25:16;17.30;67.90
47338;DHT22;33069;51.970;5.892;2023-05-10T13:27:42;17.50;66.30
47338;DHT22;33069;51.970;5.892;2023-05-10T13:30:08;17.60;67.60
47338;DHT22;33069;51.970;5.892;2023-05-10T13:32:35;18.20;64.90
47338;DHT22;33069;51.970;5.892;2023-05-10T13:35:02;18.40;64.70
47338;DHT22;33069;51.970;5.892;2023-05-10T13:37:29;18.00;64.70
47338;DHT22;33069;51.970;5.892;2023-05-10T13:39:55;17.80;64.90
47338;DHT22;33069;51.970;5.892;2023-05-10T13:42:22;17.80;65.00
47338;DHT22;33069;51.970;5.892;2023-05-10T13:44:49;17.60;66.70
47338;DHT22;33069;51.970;5.892;2023-05-10T13:47:14;17.70;67.90
47338;DHT22;33069;51.970;5.892;2023-05-10T13:49:40;17.50;69.60
47338;DHT22;33069;51.970;5.892;2023-05-10T13:52:06;17.30;69.70
47338;DHT22;33069;51.970;5.892;2023-05-10T13:54:36;17.10;71.70
47338;DHT22;33069;51.970;5.892;2023-05-10T13:57:03;17.00;70.90
47338;DHT22;33069;51.970;5.892;2023-05-10T13:59:30;16.90;72.00
47338;DHT22;33069;51.970;5.892;2023-05-10T14:01:59;16.80;72.20
47338;DHT22;33069;51.970;5.892;2023-05-10T14:04:25;16.70;73.40
47338;DHT22;33069;51.970;5.892;2023-05-10T14:06:50;16.40;75.50
47338;DHT22;33069;51.970;5.892;2023-05-10T14:09:18;16.20;75.70
47338;DHT22;33069;51.970;5.892;2023-05-10T14:11:43;16.00;74.20
47338;DHT22;33069;51.970;5.892;2023-05-10T14:14:10;16.00;74.90
47338;DHT22;33069;51.970;5.892;2023-05-10T14:16:36;16.00;75.60
47338;DHT22;33069;51.970;5.892;2023-05-10T14:19:02;15.90;76.50
47338;DHT22;33069;51.970;5.892;2023-05-10T14:21:28;16.00;76.60
47338;DHT22;33069;51.970;5.892;2023-05-10T14:23:56;16.00;76.50
47338;DHT22;33069;51.970;5.892;2023-05-10T14:26:22;16.00;77.50
47338;DHT22;33069;51.970;5.892;2023-05-10T14:28:48;16.00;77.20
47338;DHT22;33069;51.970;5.892;2023-05-10T14:31:13;16.10;77.60
47338;DHT22;33069;51.970;5.892;2023-05-10T14:33:40;16.10;77.20
47338;DHT22;33069;51.970;5.892;2023-05-10T14:36:06;16.20;77.50
47338;DHT22;33069;51.970;5.892;2023-05-10T14:38:32;16.30;76.50
47338;DHT22;33069;51.970;5.892;2023-05-10T14:40:58;15.70;77.20
47338;DHT22;33069;51.970;5.892;2023-05-10T14:43:24;15.60;78.70
47338;DHT22;33069;51.970;5.892;2023-05-10T14:45:49;15.40;78.50
47338;DHT22;33069;51.970;5.892;2023-05-10T14:48:15;15.20;79.60
47338;DHT22;33069;51.970;5.892;2023-05-10T14:50:43;15.30;78.80
47338;DHT22;33069;51.970;5.892;2023-05-10T14:53:09;15.10;78.30
47338;DHT22;33069;51.970;5.892;2023-05-10T14:55:34;14.80;79.70
47338;DHT22;33069;51.970;5.892;2023-05-10T14:58:02;14.70;80.10
47338;DHT22;33069;51.970;5.892;2023-05-10T15:00:29;14.70;80.10
47338;DHT22;33069;51.970;5.892;2023-05-10T15:02:55;14.80;80.50
47338;DHT22;33069;51.970;5.892;2023-05-10T15:05:22;15.30;79.40
47338;DHT22;33069;51.970;5.892;2023-05-10T15:07:48;15.40;79.10
47338;DHT22;33069;51.970;5.892;2023-05-10T15:10:14;15.40;78.10
47338;DHT22;33069;51.970;5.892;2023-05-10T15:12:40;15.50;78.20
47338;DHT22;33069;51.970;5.892;2023-05-10T15:15:07;15.60;76.70
47338;DHT22;33069;51.970;5.892;2023-05-10T15:17:33;15.70;75.90
47338;DHT22;33069;51.970;5.892;2023-05-10T15:19:58;15.60;75.40
47338;DHT22;33069;51.970;5.892;2023-05-10T15:22:24;15.50;77.30
47338;DHT22;33069;51.970;5.892;2023-05-10T15:24:50;15.50;77.10
47338;DHT22;33069;51.970;5.892;2023-05-10T15:27:16;15.70;76.70
47338;DHT22;33069;51.970;5.892;2023-05-10T15:29:41;15.80;75.70
47338;DHT22;33069;51.970;5.892;2023-05-10T15:32:07;15.60;74.80
47338;DHT22;33069;51.970;5.892;2023-05-10T15:34:33;15.80;75.00
47338;DHT22;33069;51.970;5.892;2023-05-10T15:36:59;15.40;75.50
47338;DHT22;33069;51.970;5.892;2023-05-10T15:39:24;15.40;76.90
47338;DHT22;33069;51.970;5.892;2023-05-10T15:41:51;15.50;77.70
47338;DHT22;33069;51.970;5.892;2023-05-10T15:44:16;15.60;77.20
47338;DHT22;33069;51.970;5.892;2023-05-10T15:46:44;16.00;76.40
47338;DHT22;33069;51.970;5.892;2023-05-10T15:49:09;16.00;74.90
47338;DHT22;33069;51.970;5.892;2023-05-10T15:51:35;16.00;75.80
47338;DHT22;33069;51.970;5.892;2023-05-10T15:54:01;16.00;74.70
47338;DHT22;33069;51.970;5.892;2023-05-10T15:56:32;15.50;76.40
47338;DHT22;33069;51.970;5.892;2023-05-10T15:58:58;15.50;76.90
47338;DHT22;33069;51.970;5.892;2023-05-10T16:01:24;15.60;77.50
47338;DHT22;33069;51.970;5.892;2023-05-10T16:03:50;16.00;75.10
47338;DHT22;33069;51.970;5.892;2023-05-10T16:06:15;16.40;74.10